HRYR/KGL METAR and TAF weather

Enter ICAO airport designator
Station Type Date Time Source
HRYR METAR 2018/07/15 19:30 UTC NOAA

HRYR 151930Z VRB02KT 9999 FEW025 21/10 Q1022 NOSIG


Station Type Date Time Source
HRYR Decoded METAR 2018/07/15 19:30 UTC NOAA

Kigali, Rwanda (HRYR) 01-58S 030-07E 1497M
Jul 15, 2018 - 03:30 PM EDT / 2018.07.15 1930 UTC
Wind: Variable at 2 MPH (2 KT):0
Visibility: greater than 7 mile(s):0
Sky conditions: mostly clear
Temperature: 69 F (21 C)
Dew Point: 50 F (10 C)
Relative Humidity: 49%
Pressure (altimeter): 30.18 in. Hg (1022 hPa)
ob: HRYR 151930Z VRB02KT 9999 FEW025 21/10 Q1022 NOSIG
cycle: 19

Station Type Date Time Source
HRYR TAF 2018/07/15 18:54 UTC NOAA

TAF HRYR 151700Z 1518/1624 14004KT 9999 FEW025 FM 152000 33004KT FEW026 SCT100
BECMG 1602/1605 VRB03KT SCT026 FM 0800 16006KT FEW025
TEMPO 1611/1615 18010KT SCT025 FM 161900 28004KT FEW026


Example: see airport list